createdAt,value
2023-03-08T00:04:05.719Z,4.10
2023-03-08T00:06:32.613Z,4.20
2023-03-08T00:09:01.465Z,4.20
2023-03-08T00:11:29.681Z,4.10
2023-03-08T00:13:57.095Z,4.20
2023-03-08T00:16:24.688Z,4.20
2023-03-08T00:18:51.588Z,4.10
2023-03-08T00:21:19.450Z,4.20
2023-03-08T00:26:14.347Z,4.10
2023-03-08T00:31:12.373Z,4.20
2023-03-08T00:33:39.841Z,4.20
2023-03-08T00:36:10.736Z,4.20
2023-03-08T00:41:04.936Z,4.20
2023-03-08T00:43:32.194Z,4.20
2023-03-08T00:50:54.023Z,4.10
2023-03-08T00:55:53.404Z,3.90
2023-03-08T00:58:21.075Z,3.80
2023-03-08T01:00:48.749Z,3.70
2023-03-08T01:03:16.958Z,3.80
2023-03-08T01:05:49.328Z,3.50
2023-03-08T01:08:17.355Z,3.40
2023-03-08T01:10:52.689Z,3.40
2023-03-08T01:13:20.550Z,3.30
2023-03-08T01:15:47.461Z,3.40
2023-03-08T01:18:14.424Z,3.40
2023-03-08T01:20:41.256Z,3.30
2023-03-08T01:23:08.533Z,3.20
2023-03-08T01:25:35.511Z,3.30
2023-03-08T01:32:57.227Z,3.10
2023-03-08T01:35:24.040Z,3.00
2023-03-08T01:37:53.678Z,3.00
2023-03-08T01:40:21.548Z,3.00
2023-03-08T01:42:48.612Z,3.10
2023-03-08T01:45:52.701Z,3.20
2023-03-08T01:48:26.101Z,3.30
2023-03-08T01:50:53.337Z,3.30
2023-03-08T01:58:14.749Z,3.30
2023-03-08T02:00:41.582Z,3.30
2023-03-08T02:03:11.924Z,3.40
2023-03-08T02:05:43.842Z,3.40
2023-03-08T02:08:10.846Z,3.40
2023-03-08T02:10:38.829Z,3.40
2023-03-08T02:13:07.749Z,3.30
2023-03-08T02:15:34.783Z,3.40
2023-03-08T02:18:01.586Z,3.40
2023-03-08T02:20:37.393Z,3.30
2023-03-08T02:23:12.716Z,3.30
2023-03-08T02:25:40.872Z,3.20
2023-03-08T02:28:08.707Z,3.30
2023-03-08T02:30:38.116Z,3.20
2023-03-08T02:33:05.000Z,3.20
2023-03-08T02:37:59.185Z,3.10
2023-03-08T02:40:26.310Z,3.20
2023-03-08T02:42:53.646Z,3.30
2023-03-08T02:45:20.655Z,3.10
2023-03-08T02:55:10.005Z,3.20
2023-03-08T02:57:36.808Z,3.20
2023-03-08T03:00:04.893Z,3.20
2023-03-08T03:02:35.329Z,3.20
2023-03-08T03:05:06.708Z,3.20
2023-03-08T03:07:38.204Z,3.20
2023-03-08T03:10:06.034Z,3.20
2023-03-08T03:12:32.901Z,3.20
2023-03-08T03:15:02.474Z,3.40
2023-03-08T03:17:29.471Z,3.30
2023-03-08T03:19:56.278Z,3.20
2023-03-08T03:22:23.490Z,3.20
2023-03-08T03:24:51.271Z,3.20
2023-03-08T03:27:21.331Z,3.20
2023-03-08T03:29:48.528Z,3.20
2023-03-08T03:32:15.575Z,3.20
2023-03-08T03:37:09.657Z,3.20
2023-03-08T03:39:39.150Z,3.30
2023-03-08T03:42:07.872Z,3.40
2023-03-08T03:47:01.978Z,3.60
2023-03-08T03:49:29.433Z,3.50
2023-03-08T03:54:23.718Z,3.60
2023-03-08T03:56:50.650Z,3.60
2023-03-08T04:04:12.271Z,3.60
2023-03-08T04:06:39.297Z,3.60
2023-03-08T04:09:08.872Z,3.60
2023-03-08T04:11:38.296Z,3.50
2023-03-08T04:14:05.921Z,3.60
2023-03-08T04:16:35.198Z,3.50
2023-03-08T04:19:05.268Z,3.50
2023-03-08T04:21:32.919Z,3.40
2023-03-08T04:24:00.794Z,3.40
2023-03-08T04:26:28.196Z,3.40
2023-03-08T04:31:28.562Z,3.50
2023-03-08T04:33:55.718Z,3.40
2023-03-08T04:36:23.331Z,3.40
2023-03-08T04:41:18.356Z,3.40
2023-03-08T04:43:46.467Z,3.40
2023-03-08T04:46:14.490Z,3.40
2023-03-08T04:51:11.218Z,3.50
2023-03-08T04:56:07.290Z,3.30
2023-03-08T04:58:35.494Z,2.80
2023-03-08T05:01:14.005Z,2.60
2023-03-08T05:03:41.296Z,2.40
2023-03-08T05:06:08.806Z,2.30
2023-03-08T05:13:34.807Z,2.20
2023-03-08T05:16:02.736Z,2.20
2023-03-08T05:18:29.670Z,2.10
2023-03-08T05:20:58.657Z,2.10
2023-03-08T05:23:28.569Z,2.10
2023-03-08T05:25:57.978Z,2.00
2023-03-08T05:28:27.475Z,1.90
2023-03-08T05:31:26.983Z,1.70
2023-03-08T05:33:54.056Z,1.70
2023-03-08T05:36:21.254Z,1.60
2023-03-08T05:41:16.829Z,1.40
2023-03-08T05:43:43.996Z,1.40
2023-03-08T05:46:16.373Z,1.30
2023-03-08T05:48:43.522Z,1.20
2023-03-08T05:51:13.014Z,1.30
2023-03-08T05:53:40.206Z,1.30
2023-03-08T05:56:18.992Z,1.30
2023-03-08T06:01:26.973Z,1.40
2023-03-08T06:03:56.785Z,1.40
2023-03-08T06:06:26.333Z,1.30
2023-03-08T06:08:54.089Z,1.40
2023-03-08T06:11:21.426Z,1.20
2023-03-08T06:13:48.378Z,1.10
2023-03-08T06:18:43.667Z,1.00
2023-03-08T06:21:16.424Z,1.10
2023-03-08T06:23:44.574Z,3.00
2023-03-08T06:26:14.670Z,1.00
2023-03-08T06:28:41.968Z,1.00
2023-03-08T06:31:13.606Z,1.10
2023-03-08T06:36:11.658Z,1.10
2023-03-08T06:38:40.543Z,1.10
2023-03-08T06:41:09.316Z,1.00
2023-03-08T06:46:07.690Z,0.90
2023-03-08T06:48:35.675Z,1.00
2023-03-08T07:00:52.352Z,1.00
2023-03-08T07:03:19.258Z,1.10
2023-03-08T07:08:13.261Z,1.10
2023-03-08T07:13:07.347Z,1.10
2023-03-08T07:15:34.326Z,1.10
2023-03-08T07:18:01.592Z,1.10
2023-03-08T07:20:28.543Z,1.10
2023-03-08T07:22:55.535Z,1.20
2023-03-08T07:27:49.625Z,1.10
2023-03-08T07:30:16.829Z,1.00
2023-03-08T07:32:44.265Z,1.00
2023-03-08T07:35:14.159Z,0.90
2023-03-08T07:37:43.811Z,1.00
2023-03-08T07:40:12.034Z,0.90
2023-03-08T07:45:06.616Z,1.00
2023-03-08T07:47:33.469Z,1.00
2023-03-08T07:52:31.624Z,0.90
2023-03-08T07:54:58.616Z,1.00
2023-03-08T08:07:16.513Z,1.20
2023-03-08T08:09:43.552Z,1.10
2023-03-08T08:14:38.421Z,1.10
2023-03-08T08:19:32.693Z,1.20
2023-03-08T08:22:00.278Z,1.30
2023-03-08T08:24:27.765Z,1.30
2023-03-08T08:26:54.612Z,1.60
2023-03-08T08:29:21.501Z,1.50
2023-03-08T08:31:48.498Z,1.70
2023-03-08T08:39:09.737Z,2.00
2023-03-08T08:41:36.543Z,1.90
2023-03-08T08:44:04.092Z,1.80
2023-03-08T08:46:34.495Z,1.90
2023-03-08T08:49:05.555Z,2.20
2023-03-08T08:53:59.949Z,2.70
2023-03-08T08:56:28.900Z,2.50
2023-03-08T08:58:57.804Z,2.50
2023-03-08T09:01:28.234Z,2.40
2023-03-08T09:06:24.674Z,2.00
2023-03-08T09:08:53.351Z,2.00
2023-03-08T09:16:20.637Z,2.00
2023-03-08T09:23:42.613Z,2.40
2023-03-08T09:31:15.369Z,2.40
2023-03-08T09:33:48.354Z,2.30
2023-03-08T09:36:16.517Z,2.30
2023-03-08T09:38:43.998Z,3.00
2023-03-08T09:41:10.759Z,4.40
2023-03-08T09:43:46.337Z,4.10
2023-03-08T09:46:17.007Z,3.70
2023-03-08T09:48:49.146Z,4.40
2023-03-08T09:51:19.832Z,5.20
2023-03-08T09:53:56.015Z,5.40
2023-03-08T09:58:57.262Z,5.30
2023-03-08T10:01:38.162Z,4.80
2023-03-08T10:04:41.062Z,4.90
2023-03-08T10:07:15.486Z,4.40
2023-03-08T10:10:01.240Z,3.40
2023-03-08T10:12:56.818Z,3.20
2023-03-08T10:15:25.306Z,4.20
2023-03-08T10:18:02.263Z,4.10
2023-03-08T10:20:32.910Z,4.20
2023-03-08T10:23:12.856Z,4.20
2023-03-08T10:25:39.965Z,4.10
2023-03-08T10:28:13.925Z,4.00
2023-03-08T10:30:50.805Z,3.90
2023-03-08T10:33:20.468Z,3.90
2023-03-08T10:36:03.835Z,3.80
2023-03-08T10:38:31.910Z,3.80
2023-03-08T10:41:13.131Z,3.50
2023-03-08T10:43:46.457Z,3.70
2023-03-08T10:46:16.214Z,3.70
2023-03-08T10:51:25.318Z,4.10
2023-03-08T10:54:03.575Z,4.00
2023-03-08T10:56:45.356Z,3.90
2023-03-08T10:59:23.829Z,3.80
2023-03-08T11:01:53.447Z,3.80
2023-03-08T11:04:22.540Z,3.80
2023-03-08T11:09:28.241Z,3.80
2023-03-08T11:11:57.075Z,3.90
2023-03-08T11:14:25.903Z,3.90
2023-03-08T11:17:07.963Z,4.30
2023-03-08T11:19:51.188Z,4.30
2023-03-08T11:22:24.751Z,4.20
2023-03-08T11:29:59.458Z,4.20
2023-03-08T11:32:50.631Z,4.60
2023-03-08T11:35:38.017Z,4.90
2023-03-08T11:40:47.821Z,5.00
2023-03-08T11:43:36.399Z,5.20
2023-03-08T11:48:33.217Z,5.00
2023-03-08T11:51:27.939Z,4.90
2023-03-08T11:54:13.188Z,4.70
2023-03-08T11:56:45.827Z,4.50
2023-03-08T11:59:37.262Z,4.60
2023-03-08T12:02:06.849Z,4.50
2023-03-08T12:04:55.793Z,4.60
2023-03-08T12:07:46.514Z,4.90
2023-03-08T12:10:19.609Z,4.90
2023-03-08T12:13:10.011Z,4.80
2023-03-08T12:15:53.677Z,4.90
2023-03-08T12:18:43.026Z,4.40
2023-03-08T12:21:24.916Z,4.30
2023-03-08T12:24:09.132Z,4.50
2023-03-08T12:26:48.717Z,4.80
2023-03-08T12:29:23.566Z,5.30
2023-03-08T12:31:51.954Z,6.20
2023-03-08T12:34:40.195Z,5.90
2023-03-08T12:37:28.575Z,5.90
2023-03-08T12:40:26.354Z,5.70
2023-03-08T12:43:11.900Z,6.10
2023-03-08T12:45:41.179Z,7.60
2023-03-08T12:48:10.145Z,7.90
2023-03-08T12:50:44.533Z,7.50
2023-03-08T12:53:30.442Z,6.80
2023-03-08T12:56:03.391Z,6.70
2023-03-08T12:58:31.929Z,6.40
2023-03-08T13:01:08.328Z,6.50
2023-03-08T13:03:41.397Z,6.30
2023-03-08T13:06:23.627Z,6.60
2023-03-08T13:08:59.333Z,6.20
2023-03-08T13:11:38.261Z,5.90
2023-03-08T13:14:06.096Z,5.70
2023-03-08T13:16:37.984Z,5.60
2023-03-08T13:19:14.467Z,5.60
2023-03-08T13:21:51.377Z,5.60
2023-03-08T13:24:49.289Z,5.80
2023-03-08T13:27:47.856Z,6.40
2023-03-08T13:35:17.168Z,7.40
2023-03-08T13:40:19.764Z,7.70
2023-03-08T13:43:05.531Z,6.80
2023-03-08T13:45:32.641Z,6.50
2023-03-08T13:48:03.289Z,6.40
2023-03-08T13:50:36.635Z,6.50
2023-03-08T13:53:09.437Z,6.20
2023-03-08T13:55:40.275Z,5.70
2023-03-08T13:58:07.505Z,5.40
2023-03-08T14:00:36.359Z,5.40
2023-03-08T14:03:07.789Z,6.30
2023-03-08T14:05:42.832Z,6.60
2023-03-08T14:08:25.194Z,6.40
2023-03-08T14:10:56.610Z,6.20
2023-03-08T14:13:33.454Z,5.80
2023-03-08T14:16:03.200Z,5.70
2023-03-08T14:18:46.014Z,5.40
2023-03-08T14:21:16.377Z,5.40
2023-03-08T14:23:50.867Z,5.40
2023-03-08T14:26:34.472Z,5.10
2023-03-08T14:29:13.143Z,5.20
2023-03-08T14:31:52.061Z,5.00
2023-03-08T14:34:39.999Z,4.90
2023-03-08T14:37:22.038Z,4.90
2023-03-08T14:39:51.207Z,4.80
2023-03-08T14:42:27.492Z,4.90
2023-03-08T14:44:58.789Z,5.00
2023-03-08T14:47:28.554Z,5.10
2023-03-08T14:49:56.045Z,5.10
2023-03-08T14:54:50.333Z,5.30
2023-03-08T14:57:23.128Z,4.90
2023-03-08T14:59:50.499Z,4.90
2023-03-08T15:02:18.418Z,4.90
2023-03-08T15:04:46.389Z,4.70
2023-03-08T15:07:34.284Z,4.80
2023-03-08T15:10:03.555Z,5.10
2023-03-08T15:17:24.815Z,4.70
2023-03-08T15:24:46.328Z,5.10
2023-03-08T15:27:15.966Z,5.00
2023-03-08T15:39:35.343Z,4.90
2023-03-08T15:46:57.333Z,4.70
2023-03-08T15:56:46.118Z,4.50
2023-03-08T15:59:13.002Z,4.30
2023-03-08T16:01:39.924Z,4.30
2023-03-08T16:09:01.422Z,4.70
2023-03-08T16:13:55.583Z,4.40
2023-03-08T16:16:25.924Z,4.40
2023-03-08T16:18:59.305Z,4.50
2023-03-08T16:21:27.337Z,4.40
2023-03-08T16:26:21.979Z,4.30
2023-03-08T16:28:48.775Z,4.30
2023-03-08T16:31:19.917Z,4.20
2023-03-08T16:33:46.898Z,4.20
2023-03-08T16:38:41.730Z,4.00
2023-03-08T16:43:48.131Z,4.00
2023-03-08T16:46:18.171Z,4.00
2023-03-08T16:51:15.396Z,3.80
2023-03-08T16:53:42.851Z,3.90
2023-03-08T16:56:16.689Z,3.90
2023-03-08T16:58:43.523Z,4.00
2023-03-08T17:01:14.628Z,4.00
2023-03-08T17:03:41.852Z,4.00
2023-03-08T17:06:11.040Z,3.90
2023-03-08T17:11:06.231Z,3.80
2023-03-08T17:13:33.774Z,3.80
2023-03-08T17:18:27.981Z,3.80
2023-03-08T17:23:22.325Z,3.70
2023-03-08T17:28:16.510Z,3.70
2023-03-08T17:33:12.768Z,3.60
2023-03-08T17:35:41.056Z,3.90
2023-03-08T17:38:08.597Z,3.90
2023-03-08T17:50:31.257Z,3.60
2023-03-08T17:52:58.717Z,3.60
2023-03-08T17:55:26.428Z,3.60
2023-03-08T17:57:53.356Z,3.60
2023-03-08T18:07:42.223Z,3.50
2023-03-08T18:10:11.063Z,3.50
2023-03-08T18:12:37.936Z,3.40
2023-03-08T18:15:05.257Z,3.40
2023-03-08T18:17:33.162Z,3.30
2023-03-08T18:20:01.114Z,3.30
2023-03-08T18:24:55.207Z,3.50
2023-03-08T18:27:22.014Z,3.50
2023-03-08T18:29:48.952Z,3.40
2023-03-08T18:32:15.813Z,3.40
2023-03-08T18:39:37.131Z,3.50
2023-03-08T18:44:31.665Z,3.40
2023-03-08T18:49:26.320Z,3.20
2023-03-08T18:51:53.181Z,3.20
2023-03-08T18:54:23.020Z,3.20
2023-03-08T18:59:21.192Z,3.10
2023-03-08T19:01:50.391Z,3.20
2023-03-08T19:06:44.673Z,3.00
2023-03-08T19:09:14.550Z,2.90
2023-03-08T19:14:11.671Z,3.00
2023-03-08T19:16:38.745Z,3.10
2023-03-08T19:19:11.342Z,3.00
2023-03-08T19:21:41.849Z,3.10
2023-03-08T19:24:11.605Z,3.00
2023-03-08T19:26:41.013Z,3.00
2023-03-08T19:29:14.984Z,3.00
2023-03-08T19:31:44.722Z,3.00
2023-03-08T19:34:13.608Z,3.00
2023-03-08T19:36:41.949Z,3.00
2023-03-08T19:39:12.581Z,3.00
2023-03-08T19:44:07.908Z,2.90
2023-03-08T19:46:35.995Z,3.00
2023-03-08T19:51:30.161Z,2.90
2023-03-08T19:56:25.324Z,2.90
2023-03-08T19:58:55.458Z,2.80
2023-03-08T20:06:28.872Z,2.80
2023-03-08T20:08:57.002Z,2.90
2023-03-08T20:11:24.418Z,2.80
2023-03-08T20:13:51.355Z,2.80
2023-03-08T20:16:19.533Z,2.80
2023-03-08T20:21:16.757Z,2.70
2023-03-08T20:23:43.610Z,2.70
2023-03-08T20:28:38.258Z,2.50
2023-03-08T20:31:12.493Z,2.50
2023-03-08T20:33:40.107Z,2.60
2023-03-08T20:36:07.413Z,2.70
2023-03-08T20:41:08.589Z,2.80
2023-03-08T20:43:35.875Z,2.80
2023-03-08T20:46:08.409Z,2.70
2023-03-08T20:48:36.965Z,2.80
2023-03-08T20:51:05.532Z,2.60
2023-03-08T20:53:33.409Z,2.70
2023-03-08T20:56:08.295Z,2.70
2023-03-08T20:58:35.475Z,2.70
2023-03-08T21:01:13.525Z,2.70
2023-03-08T21:03:40.894Z,2.70
2023-03-08T21:06:19.562Z,2.70
2023-03-08T21:08:48.274Z,2.70
2023-03-08T21:11:16.568Z,2.70
2023-03-08T21:16:15.850Z,2.80
2023-03-08T21:18:46.217Z,2.60
2023-03-08T21:21:35.484Z,2.70
2023-03-08T21:24:06.039Z,2.70
2023-03-08T21:26:33.649Z,2.60
2023-03-08T21:29:03.293Z,2.60
2023-03-08T21:31:37.232Z,2.60
2023-03-08T21:34:06.267Z,2.60
2023-03-08T21:36:34.228Z,2.60
2023-03-08T21:39:01.286Z,2.60
2023-03-08T21:41:31.198Z,2.60
2023-03-08T21:43:59.361Z,2.60
2023-03-08T21:46:26.318Z,2.60
2023-03-08T21:48:54.417Z,2.60
2023-03-08T21:51:21.943Z,2.60
2023-03-08T21:53:48.999Z,2.70
2023-03-08T21:56:17.305Z,2.60
2023-03-08T21:58:45.015Z,2.70
2023-03-08T22:01:24.540Z,2.60
2023-03-08T22:06:19.143Z,2.60
2023-03-08T22:11:13.845Z,2.70
2023-03-08T22:13:41.100Z,2.60
2023-03-08T22:16:08.766Z,2.60
2023-03-08T22:21:02.890Z,2.60
2023-03-08T22:25:58.623Z,2.70
2023-03-08T22:28:25.756Z,2.60
2023-03-08T22:30:53.092Z,2.70
2023-03-08T22:35:48.121Z,2.70
2023-03-08T22:38:18.571Z,2.70
2023-03-08T22:40:45.567Z,2.70
2023-03-08T22:43:12.389Z,2.80
2023-03-08T22:45:39.229Z,2.60
2023-03-08T22:48:06.935Z,2.70
2023-03-08T22:57:55.679Z,2.70
2023-03-08T23:02:50.498Z,3.00
2023-03-08T23:05:20.100Z,2.70
2023-03-08T23:10:17.103Z,2.90
2023-03-08T23:12:43.904Z,2.90
2023-03-08T23:16:13.265Z,2.90
2023-03-08T23:21:15.186Z,2.80
2023-03-08T23:29:53.144Z,2.90
2023-03-08T23:32:20.104Z,2.90
2023-03-08T23:34:47.079Z,2.90
2023-03-08T23:37:14.352Z,2.90
2023-03-08T23:39:41.328Z,2.90
2023-03-08T23:42:08.520Z,2.90
2023-03-08T23:44:35.348Z,2.80
2023-03-08T23:47:02.426Z,3.00
2023-03-08T23:49:29.301Z,2.90
2023-03-08T23:51:56.152Z,2.80
2023-03-08T23:54:23.005Z,2.90
2023-03-08T23:56:49.913Z,2.90
2023-03-08T23:59:19.795Z,2.90
